sensor_id;sensor_type;location;lat;lon;timestamp;P1;durP1;ratioP1;P2;durP2;ratioP2
27539;SDS011;15906;52.046;4.724;2023-05-10T00:00:36;39.10;;;25.65;;
27539;SDS011;15906;52.046;4.724;2023-05-10T00:03:02;38.90;;;24.92;;
27539;SDS011;15906;52.046;4.724;2023-05-10T00:05:29;38.03;;;25.33;;
27539;SDS011;15906;52.046;4.724;2023-05-10T00:07:55;41.50;;;24.98;;
27539;SDS011;15906;52.046;4.724;2023-05-10T00:10:21;40.08;;;24.70;;
27539;SDS011;15906;52.046;4.724;2023-05-10T00:12:47;38.20;;;25.48;;
27539;SDS011;15906;52.046;4.724;2023-05-10T00:15:12;44.78;;;26.40;;
27539;SDS011;15906;52.046;4.724;2023-05-10T00:17:38;38.95;;;24.52;;
27539;SDS011;15906;52.046;4.724;2023-05-10T00:20:04;44.95;;;27.25;;
27539;SDS011;15906;52.046;4.724;2023-05-10T00:22:30;48.58;;;27.98;;
27539;SDS011;15906;52.046;4.724;2023-05-10T00:24:56;40.92;;;26.33;;
27539;SDS011;15906;52.046;4.724;2023-05-10T00:27:22;40.17;;;24.83;;
27539;SDS011;15906;52.046;4.724;2023-05-10T00:29:48;44.22;;;26.38;;
27539;SDS011;15906;52.046;4.724;2023-05-10T00:32:14;46.78;;;28.02;;
27539;SDS011;15906;52.046;4.724;2023-05-10T00:34:40;45.80;;;28.17;;
27539;SDS011;15906;52.046;4.724;2023-05-10T00:37:05;43.88;;;27.20;;
27539;SDS011;15906;52.046;4.724;2023-05-10T00:39:31;49.70;;;29.40;;
27539;SDS011;15906;52.046;4.724;2023-05-10T00:41:56;45.10;;;27.05;;
27539;SDS011;15906;52.046;4.724;2023-05-10T00:44:22;53.22;;;30.23;;
27539;SDS011;15906;52.046;4.724;2023-05-10T00:46:48;50.30;;;29.65;;
27539;SDS011;15906;52.046;4.724;2023-05-10T00:49:14;54.47;;;29.05;;
27539;SDS011;15906;52.046;4.724;2023-05-10T00:51:40;50.03;;;29.25;;
27539;SDS011;15906;52.046;4.724;2023-05-10T00:54:08;58.08;;;29.13;;
27539;SDS011;15906;52.046;4.724;2023-05-10T00:56:36;49.67;;;28.58;;
27539;SDS011;15906;52.046;4.724;2023-05-10T00:59:02;43.58;;;25.92;;
27539;SDS011;15906;52.046;4.724;2023-05-10T01:01:28;49.15;;;30.63;;
27539;SDS011;15906;52.046;4.724;2023-05-10T01:03:54;50.00;;;30.60;;
27539;SDS011;15906;52.046;4.724;2023-05-10T01:06:20;53.97;;;32.38;;
27539;SDS011;15906;52.046;4.724;2023-05-10T01:08:46;55.90;;;30.52;;
27539;SDS011;15906;52.046;4.724;2023-05-10T01:11:12;58.15;;;30.38;;
27539;SDS011;15906;52.046;4.724;2023-05-10T01:13:39;56.88;;;30.63;;
27539;SDS011;15906;52.046;4.724;2023-05-10T01:16:07;61.90;;;32.67;;
27539;SDS011;15906;52.046;4.724;2023-05-10T01:18:33;62.47;;;31.92;;
27539;SDS011;15906;52.046;4.724;2023-05-10T01:21:15;61.42;;;32.33;;
27539;SDS011;15906;52.046;4.724;2023-05-10T01:32:08;59.58;;;33.47;;
27539;SDS011;15906;52.046;4.724;2023-05-10T01:37:45;62.90;;;33.40;;
27539;SDS011;15906;52.046;4.724;2023-05-10T01:43:30;67.47;;;34.08;;
27539;SDS011;15906;52.046;4.724;2023-05-10T01:46:07;71.75;;;34.92;;
27539;SDS011;15906;52.046;4.724;2023-05-10T01:48:46;79.85;;;36.03;;
27539;SDS011;15906;52.046;4.724;2023-05-10T01:51:15;97.22;;;39.28;;
27539;SDS011;15906;52.046;4.724;2023-05-10T01:53:46;92.32;;;37.42;;
27539;SDS011;15906;52.046;4.724;2023-05-10T01:56:13;104.78;;;38.63;;
27539;SDS011;15906;52.046;4.724;2023-05-10T01:58:40;88.68;;;35.92;;
27539;SDS011;15906;52.046;4.724;2023-05-10T02:01:10;93.03;;;36.47;;
27539;SDS011;15906;52.046;4.724;2023-05-10T02:03:37;84.75;;;35.38;;
27539;SDS011;15906;52.046;4.724;2023-05-10T02:06:04;96.63;;;35.90;;
27539;SDS011;15906;52.046;4.724;2023-05-10T02:08:32;101.40;;;39.00;;
27539;SDS011;15906;52.046;4.724;2023-05-10T02:11:00;103.20;;;36.33;;
27539;SDS011;15906;52.046;4.724;2023-05-10T02:13:27;112.10;;;39.40;;
27539;SDS011;15906;52.046;4.724;2023-05-10T02:15:54;93.50;;;37.28;;
27539;SDS011;15906;52.046;4.724;2023-05-10T02:18:22;94.72;;;38.22;;
27539;SDS011;15906;52.046;4.724;2023-05-10T02:20:50;90.88;;;37.90;;
27539;SDS011;15906;52.046;4.724;2023-05-10T02:23:18;92.88;;;36.30;;
27539;SDS011;15906;52.046;4.724;2023-05-10T02:25:45;90.43;;;37.80;;
27539;SDS011;15906;52.046;4.724;2023-05-10T02:28:13;84.35;;;35.40;;
27539;SDS011;15906;52.046;4.724;2023-05-10T02:30:40;78.22;;;38.42;;
27539;SDS011;15906;52.046;4.724;2023-05-10T02:33:07;88.75;;;38.53;;
27539;SDS011;15906;52.046;4.724;2023-05-10T02:35:33;82.28;;;39.03;;
27539;SDS011;15906;52.046;4.724;2023-05-10T02:38:00;76.45;;;36.53;;
27539;SDS011;15906;52.046;4.724;2023-05-10T02:40:26;88.70;;;39.35;;
27539;SDS011;15906;52.046;4.724;2023-05-10T02:42:54;97.13;;;41.10;;
27539;SDS011;15906;52.046;4.724;2023-05-10T02:45:23;78.47;;;38.63;;
27539;SDS011;15906;52.046;4.724;2023-05-10T02:47:53;91.65;;;40.92;;
27539;SDS011;15906;52.046;4.724;2023-05-10T02:50:19;88.38;;;38.30;;
27539;SDS011;15906;52.046;4.724;2023-05-10T02:52:49;76.32;;;37.92;;
27539;SDS011;15906;52.046;4.724;2023-05-10T02:55:19;79.93;;;36.75;;
27539;SDS011;15906;52.046;4.724;2023-05-10T02:58:08;84.40;;;37.22;;
27539;SDS011;15906;52.046;4.724;2023-05-10T03:00:34;84.00;;;38.08;;
27539;SDS011;15906;52.046;4.724;2023-05-10T03:03:01;82.85;;;34.90;;
27539;SDS011;15906;52.046;4.724;2023-05-10T03:05:27;72.45;;;35.15;;
27539;SDS011;15906;52.046;4.724;2023-05-10T03:07:52;74.25;;;34.95;;
27539;SDS011;15906;52.046;4.724;2023-05-10T03:10:18;80.50;;;36.75;;
27539;SDS011;15906;52.046;4.724;2023-05-10T03:18:06;76.10;;;38.58;;
27539;SDS011;15906;52.046;4.724;2023-05-10T03:20:36;82.30;;;41.00;;
27539;SDS011;15906;52.046;4.724;2023-05-10T03:23:11;101.40;;;42.00;;
27539;SDS011;15906;52.046;4.724;2023-05-10T03:25:51;78.88;;;40.35;;
27539;SDS011;15906;52.046;4.724;2023-05-10T03:28:17;80.97;;;39.50;;
27539;SDS011;15906;52.046;4.724;2023-05-10T03:30:44;82.07;;;41.17;;
27539;SDS011;15906;52.046;4.724;2023-05-10T03:33:11;83.95;;;40.30;;
27539;SDS011;15906;52.046;4.724;2023-05-10T03:35:37;91.95;;;42.20;;
27539;SDS011;15906;52.046;4.724;2023-05-10T03:38:03;88.10;;;43.40;;
27539;SDS011;15906;52.046;4.724;2023-05-10T03:40:29;84.28;;;43.53;;
27539;SDS011;15906;52.046;4.724;2023-05-10T03:42:56;88.97;;;45.55;;
27539;SDS011;15906;52.046;4.724;2023-05-10T03:45:23;101.60;;;47.70;;
27539;SDS011;15906;52.046;4.724;2023-05-10T03:47:48;91.25;;;47.47;;
27539;SDS011;15906;52.046;4.724;2023-05-10T03:50:14;89.25;;;45.92;;
27539;SDS011;15906;52.046;4.724;2023-05-10T03:52:39;88.25;;;43.55;;
27539;SDS011;15906;52.046;4.724;2023-05-10T03:55:06;92.70;;;42.60;;
27539;SDS011;15906;52.046;4.724;2023-05-10T03:57:32;91.00;;;41.90;;
27539;SDS011;15906;52.046;4.724;2023-05-10T03:59:58;97.82;;;45.78;;
27539;SDS011;15906;52.046;4.724;2023-05-10T04:02:23;97.53;;;40.15;;
27539;SDS011;15906;52.046;4.724;2023-05-10T04:04:49;82.60;;;42.63;;
27539;SDS011;15906;52.046;4.724;2023-05-10T04:07:15;82.10;;;40.80;;
27539;SDS011;15906;52.046;4.724;2023-05-10T04:09:41;84.50;;;43.33;;
27539;SDS011;15906;52.046;4.724;2023-05-10T04:12:06;86.55;;;45.05;;
27539;SDS011;15906;52.046;4.724;2023-05-10T04:14:32;97.00;;;45.45;;
27539;SDS011;15906;52.046;4.724;2023-05-10T04:16:58;91.45;;;44.45;;
27539;SDS011;15906;52.046;4.724;2023-05-10T04:19:23;83.65;;;43.17;;
27539;SDS011;15906;52.046;4.724;2023-05-10T04:21:49;110.82;;;49.20;;
27539;SDS011;15906;52.046;4.724;2023-05-10T04:24:14;78.68;;;44.03;;
27539;SDS011;15906;52.046;4.724;2023-05-10T04:26:40;84.30;;;43.92;;
27539;SDS011;15906;52.046;4.724;2023-05-10T04:29:06;76.78;;;44.35;;
27539;SDS011;15906;52.046;4.724;2023-05-10T04:31:31;98.15;;;46.67;;
27539;SDS011;15906;52.046;4.724;2023-05-10T04:33:57;93.63;;;47.20;;
27539;SDS011;15906;52.046;4.724;2023-05-10T04:36:22;94.53;;;49.58;;
27539;SDS011;15906;52.046;4.724;2023-05-10T04:38:48;91.60;;;49.30;;
27539;SDS011;15906;52.046;4.724;2023-05-10T04:41:14;86.03;;;46.13;;
27539;SDS011;15906;52.046;4.724;2023-05-10T04:43:39;87.18;;;45.42;;
27539;SDS011;15906;52.046;4.724;2023-05-10T04:46:05;78.50;;;41.60;;
27539;SDS011;15906;52.046;4.724;2023-05-10T04:48:32;80.57;;;44.65;;
27539;SDS011;15906;52.046;4.724;2023-05-10T04:50:58;72.28;;;41.33;;
27539;SDS011;15906;52.046;4.724;2023-05-10T04:53:23;69.32;;;38.80;;
27539;SDS011;15906;52.046;4.724;2023-05-10T04:55:49;63.13;;;35.67;;
27539;SDS011;15906;52.046;4.724;2023-05-10T04:58:15;70.85;;;35.33;;
27539;SDS011;15906;52.046;4.724;2023-05-10T05:00:41;61.78;;;34.85;;
27539;SDS011;15906;52.046;4.724;2023-05-10T05:03:07;72.63;;;36.53;;
27539;SDS011;15906;52.046;4.724;2023-05-10T05:05:32;71.00;;;34.50;;
27539;SDS011;15906;52.046;4.724;2023-05-10T05:07:58;66.80;;;34.35;;
27539;SDS011;15906;52.046;4.724;2023-05-10T05:10:23;64.72;;;33.83;;
27539;SDS011;15906;52.046;4.724;2023-05-10T05:12:49;76.55;;;37.00;;
27539;SDS011;15906;52.046;4.724;2023-05-10T05:15:14;67.65;;;35.72;;
27539;SDS011;15906;52.046;4.724;2023-05-10T05:17:41;72.55;;;35.28;;
27539;SDS011;15906;52.046;4.724;2023-05-10T05:20:07;64.50;;;33.80;;
27539;SDS011;15906;52.046;4.724;2023-05-10T05:22:33;62.97;;;30.75;;
27539;SDS011;15906;52.046;4.724;2023-05-10T05:25:00;67.53;;;32.30;;
27539;SDS011;15906;52.046;4.724;2023-05-10T05:27:27;68.78;;;32.97;;
27539;SDS011;15906;52.046;4.724;2023-05-10T05:29:53;60.00;;;30.55;;
27539;SDS011;15906;52.046;4.724;2023-05-10T05:32:19;57.30;;;31.25;;
27539;SDS011;15906;52.046;4.724;2023-05-10T05:34:45;59.58;;;29.65;;
27539;SDS011;15906;52.046;4.724;2023-05-10T05:37:20;48.88;;;26.80;;
27539;SDS011;15906;52.046;4.724;2023-05-10T05:39:46;54.67;;;25.15;;
27539;SDS011;15906;52.046;4.724;2023-05-10T05:42:12;46.80;;;23.17;;
27539;SDS011;15906;52.046;4.724;2023-05-10T05:44:39;43.33;;;23.10;;
27539;SDS011;15906;52.046;4.724;2023-05-10T05:47:05;47.60;;;22.45;;
27539;SDS011;15906;52.046;4.724;2023-05-10T05:49:31;44.70;;;23.30;;
27539;SDS011;15906;52.046;4.724;2023-05-10T05:52:00;44.42;;;22.75;;
27539;SDS011;15906;52.046;4.724;2023-05-10T05:54:27;44.65;;;22.83;;
27539;SDS011;15906;52.046;4.724;2023-05-10T05:56:56;49.83;;;22.38;;
27539;SDS011;15906;52.046;4.724;2023-05-10T05:59:22;46.72;;;23.08;;
27539;SDS011;15906;52.046;4.724;2023-05-10T06:01:48;46.03;;;22.65;;
27539;SDS011;15906;52.046;4.724;2023-05-10T06:04:14;46.65;;;21.75;;
27539;SDS011;15906;52.046;4.724;2023-05-10T06:06:39;49.80;;;22.48;;
27539;SDS011;15906;52.046;4.724;2023-05-10T06:09:05;44.90;;;22.38;;
27539;SDS011;15906;52.046;4.724;2023-05-10T06:11:31;45.55;;;21.80;;
27539;SDS011;15906;52.046;4.724;2023-05-10T06:13:59;43.50;;;21.67;;
27539;SDS011;15906;52.046;4.724;2023-05-10T06:16:25;41.63;;;20.65;;
27539;SDS011;15906;52.046;4.724;2023-05-10T06:18:51;39.65;;;19.65;;
27539;SDS011;15906;52.046;4.724;2023-05-10T06:21:16;37.40;;;18.80;;
27539;SDS011;15906;52.046;4.724;2023-05-10T06:23:42;38.75;;;19.85;;
27539;SDS011;15906;52.046;4.724;2023-05-10T06:26:08;45.58;;;21.70;;
27539;SDS011;15906;52.046;4.724;2023-05-10T06:28:34;37.58;;;19.23;;
27539;SDS011;15906;52.046;4.724;2023-05-10T06:31:02;45.08;;;20.40;;
27539;SDS011;15906;52.046;4.724;2023-05-10T06:33:28;36.20;;;18.90;;
27539;SDS011;15906;52.046;4.724;2023-05-10T06:35:54;41.35;;;18.73;;
27539;SDS011;15906;52.046;4.724;2023-05-10T06:38:19;33.67;;;17.17;;
27539;SDS011;15906;52.046;4.724;2023-05-10T06:40:45;31.23;;;16.35;;
27539;SDS011;15906;52.046;4.724;2023-05-10T06:43:10;30.00;;;15.90;;
27539;SDS011;15906;52.046;4.724;2023-05-10T06:45:36;27.17;;;13.50;;
27539;SDS011;15906;52.046;4.724;2023-05-10T06:48:01;25.95;;;13.68;;
27539;SDS011;15906;52.046;4.724;2023-05-10T06:50:27;28.42;;;13.18;;
27539;SDS011;15906;52.046;4.724;2023-05-10T06:52:53;23.85;;;12.65;;
27539;SDS011;15906;52.046;4.724;2023-05-10T06:55:19;22.38;;;12.65;;
27539;SDS011;15906;52.046;4.724;2023-05-10T06:57:44;19.33;;;12.38;;
27539;SDS011;15906;52.046;4.724;2023-05-10T07:00:10;16.77;;;10.40;;
27539;SDS011;15906;52.046;4.724;2023-05-10T07:02:36;16.58;;;10.23;;
27539;SDS011;15906;52.046;4.724;2023-05-10T07:05:01;16.50;;;10.48;;
27539;SDS011;15906;52.046;4.724;2023-05-10T07:07:27;17.30;;;10.93;;
27539;SDS011;15906;52.046;4.724;2023-05-10T07:09:53;16.25;;;10.93;;
27539;SDS011;15906;52.046;4.724;2023-05-10T07:12:19;17.40;;;10.02;;
27539;SDS011;15906;52.046;4.724;2023-05-10T07:14:45;16.80;;;10.13;;
27539;SDS011;15906;52.046;4.724;2023-05-10T07:17:10;15.25;;;9.23;;
27539;SDS011;15906;52.046;4.724;2023-05-10T07:19:36;14.43;;;9.35;;
27539;SDS011;15906;52.046;4.724;2023-05-10T07:22:02;14.10;;;9.15;;
27539;SDS011;15906;52.046;4.724;2023-05-10T07:24:27;14.55;;;9.63;;
27539;SDS011;15906;52.046;4.724;2023-05-10T07:26:53;13.15;;;9.30;;
27539;SDS011;15906;52.046;4.724;2023-05-10T07:29:19;10.90;;;7.60;;
27539;SDS011;15906;52.046;4.724;2023-05-10T07:31:44;14.77;;;8.70;;
27539;SDS011;15906;52.046;4.724;2023-05-10T07:34:10;11.93;;;7.78;;
27539;SDS011;15906;52.046;4.724;2023-05-10T07:36:35;12.35;;;7.55;;
27539;SDS011;15906;52.046;4.724;2023-05-10T07:39:01;11.48;;;7.80;;
27539;SDS011;15906;52.046;4.724;2023-05-10T07:41:27;11.57;;;7.90;;
27539;SDS011;15906;52.046;4.724;2023-05-10T07:43:52;12.10;;;7.13;;
27539;SDS011;15906;52.046;4.724;2023-05-10T07:46:18;10.15;;;6.53;;
27539;SDS011;15906;52.046;4.724;2023-05-10T07:48:44;11.73;;;6.90;;
27539;SDS011;15906;52.046;4.724;2023-05-10T07:51:10;11.90;;;7.25;;
27539;SDS011;15906;52.046;4.724;2023-05-10T07:53:36;12.68;;;7.47;;
27539;SDS011;15906;52.046;4.724;2023-05-10T07:56:19;11.70;;;6.90;;
27539;SDS011;15906;52.046;4.724;2023-05-10T07:58:45;11.52;;;6.97;;
27539;SDS011;15906;52.046;4.724;2023-05-10T08:01:10;13.32;;;7.47;;
27539;SDS011;15906;52.046;4.724;2023-05-10T08:03:36;13.10;;;7.82;;
27539;SDS011;15906;52.046;4.724;2023-05-10T08:06:01;12.23;;;7.13;;
27539;SDS011;15906;52.046;4.724;2023-05-10T08:08:27;12.60;;;6.93;;
27539;SDS011;15906;52.046;4.724;2023-05-10T08:10:53;10.95;;;7.35;;
27539;SDS011;15906;52.046;4.724;2023-05-10T08:13:18;13.90;;;7.30;;
27539;SDS011;15906;52.046;4.724;2023-05-10T08:15:44;12.60;;;7.90;;
27539;SDS011;15906;52.046;4.724;2023-05-10T08:18:09;14.10;;;7.82;;
27539;SDS011;15906;52.046;4.724;2023-05-10T08:20:35;12.10;;;8.15;;
27539;SDS011;15906;52.046;4.724;2023-05-10T08:23:00;11.50;;;7.07;;
27539;SDS011;15906;52.046;4.724;2023-05-10T08:25:26;10.48;;;7.05;;
27539;SDS011;15906;52.046;4.724;2023-05-10T08:27:51;11.55;;;6.72;;
27539;SDS011;15906;52.046;4.724;2023-05-10T08:30:17;10.27;;;6.55;;
27539;SDS011;15906;52.046;4.724;2023-05-10T08:32:42;8.27;;;5.65;;
27539;SDS011;15906;52.046;4.724;2023-05-10T08:35:08;11.20;;;6.22;;
27539;SDS011;15906;52.046;4.724;2023-05-10T08:37:33;15.07;;;7.32;;
27539;SDS011;15906;52.046;4.724;2023-05-10T08:39:59;10.57;;;6.97;;
27539;SDS011;15906;52.046;4.724;2023-05-10T08:42:25;14.38;;;7.30;;
27539;SDS011;15906;52.046;4.724;2023-05-10T08:44:53;15.38;;;7.70;;
27539;SDS011;15906;52.046;4.724;2023-05-10T08:47:20;11.45;;;7.22;;
27539;SDS011;15906;52.046;4.724;2023-05-10T08:49:47;13.00;;;8.32;;
27539;SDS011;15906;52.046;4.724;2023-05-10T08:52:16;11.10;;;6.97;;
27539;SDS011;15906;52.046;4.724;2023-05-10T08:54:43;9.85;;;7.35;;
27539;SDS011;15906;52.046;4.724;2023-05-10T08:57:09;10.25;;;7.28;;
27539;SDS011;15906;52.046;4.724;2023-05-10T08:59:35;15.18;;;7.63;;
27539;SDS011;15906;52.046;4.724;2023-05-10T09:02:04;15.02;;;7.80;;
27539;SDS011;15906;52.046;4.724;2023-05-10T09:04:31;14.35;;;7.32;;
27539;SDS011;15906;52.046;4.724;2023-05-10T09:06:56;13.38;;;7.25;;
27539;SDS011;15906;52.046;4.724;2023-05-10T09:09:22;13.77;;;8.02;;
27539;SDS011;15906;52.046;4.724;2023-05-10T09:11:50;16.83;;;8.27;;
27539;SDS011;15906;52.046;4.724;2023-05-10T09:14:16;12.25;;;7.40;;
27539;SDS011;15906;52.046;4.724;2023-05-10T09:16:43;11.93;;;7.75;;
27539;SDS011;15906;52.046;4.724;2023-05-10T09:19:09;9.95;;;6.90;;
27539;SDS011;15906;52.046;4.724;2023-05-10T09:21:35;14.48;;;7.60;;
27539;SDS011;15906;52.046;4.724;2023-05-10T09:24:03;13.18;;;8.00;;
27539;SDS011;15906;52.046;4.724;2023-05-10T09:26:30;11.65;;;7.38;;
27539;SDS011;15906;52.046;4.724;2023-05-10T09:28:56;14.45;;;8.52;;
27539;SDS011;15906;52.046;4.724;2023-05-10T09:31:24;13.82;;;8.38;;
27539;SDS011;15906;52.046;4.724;2023-05-10T09:33:52;12.98;;;8.63;;
27539;SDS011;15906;52.046;4.724;2023-05-10T09:36:18;13.65;;;7.97;;
27539;SDS011;15906;52.046;4.724;2023-05-10T09:38:47;15.27;;;9.10;;
27539;SDS011;15906;52.046;4.724;2023-05-10T09:41:21;11.88;;;7.53;;
27539;SDS011;15906;52.046;4.724;2023-05-10T09:43:48;15.40;;;8.52;;
27539;SDS011;15906;52.046;4.724;2023-05-10T09:46:17;15.45;;;8.35;;
27539;SDS011;15906;52.046;4.724;2023-05-10T09:48:44;12.95;;;7.85;;
27539;SDS011;15906;52.046;4.724;2023-05-10T09:51:18;12.85;;;8.07;;
27539;SDS011;15906;52.046;4.724;2023-05-10T09:53:48;13.43;;;8.60;;
27539;SDS011;15906;52.046;4.724;2023-05-10T09:56:32;12.73;;;8.20;;
27539;SDS011;15906;52.046;4.724;2023-05-10T09:59:02;12.98;;;8.68;;
27539;SDS011;15906;52.046;4.724;2023-05-10T10:01:28;12.55;;;7.32;;
27539;SDS011;15906;52.046;4.724;2023-05-10T10:03:54;12.88;;;7.22;;
27539;SDS011;15906;52.046;4.724;2023-05-10T10:06:22;12.13;;;7.50;;
27539;SDS011;15906;52.046;4.724;2023-05-10T10:08:48;12.73;;;7.60;;
27539;SDS011;15906;52.046;4.724;2023-05-10T10:11:15;13.13;;;6.85;;
27539;SDS011;15906;52.046;4.724;2023-05-10T10:13:41;8.85;;;6.68;;
27539;SDS011;15906;52.046;4.724;2023-05-10T10:16:07;9.48;;;6.60;;
27539;SDS011;15906;52.046;4.724;2023-05-10T10:18:33;10.20;;;6.82;;
27539;SDS011;15906;52.046;4.724;2023-05-10T10:21:04;11.00;;;7.32;;
27539;SDS011;15906;52.046;4.724;2023-05-10T10:23:31;9.30;;;6.63;;
27539;SDS011;15906;52.046;4.724;2023-05-10T10:25:57;11.45;;;6.85;;
27539;SDS011;15906;52.046;4.724;2023-05-10T10:31:02;11.38;;;6.65;;
27539;SDS011;15906;52.046;4.724;2023-05-10T10:36:15;10.13;;;6.35;;
27539;SDS011;15906;52.046;4.724;2023-05-10T10:41:31;8.63;;;6.63;;
27539;SDS011;15906;52.046;4.724;2023-05-10T10:52:30;8.15;;;6.57;;
27539;SDS011;15906;52.046;4.724;2023-05-10T10:55:03;7.93;;;6.25;;
27539;SDS011;15906;52.046;4.724;2023-05-10T11:10:38;17.80;;;9.88;;
27539;SDS011;15906;52.046;4.724;2023-05-10T11:13:05;16.30;;;9.38;;
27539;SDS011;15906;52.046;4.724;2023-05-10T11:15:32;19.08;;;9.70;;
27539;SDS011;15906;52.046;4.724;2023-05-10T11:18:18;13.85;;;8.75;;
27539;SDS011;15906;52.046;4.724;2023-05-10T11:21:02;15.43;;;9.10;;
27539;SDS011;15906;52.046;4.724;2023-05-10T11:26:15;20.42;;;10.00;;
27539;SDS011;15906;52.046;4.724;2023-05-10T11:28:45;17.80;;;9.57;;
27539;SDS011;15906;52.046;4.724;2023-05-10T11:31:18;19.13;;;10.73;;
27539;SDS011;15906;52.046;4.724;2023-05-10T11:33:51;18.15;;;10.77;;
27539;SDS011;15906;52.046;4.724;2023-05-10T11:36:19;20.35;;;11.07;;
27539;SDS011;15906;52.046;4.724;2023-05-10T11:38:46;21.75;;;10.65;;
27539;SDS011;15906;52.046;4.724;2023-05-10T11:41:12;19.10;;;11.18;;
27539;SDS011;15906;52.046;4.724;2023-05-10T11:43:38;26.15;;;11.85;;
27539;SDS011;15906;52.046;4.724;2023-05-10T11:46:12;20.85;;;11.10;;
27539;SDS011;15906;52.046;4.724;2023-05-10T11:48:39;16.35;;;9.73;;
27539;SDS011;15906;52.046;4.724;2023-05-10T11:51:06;20.92;;;10.05;;
27539;SDS011;15906;52.046;4.724;2023-05-10T11:53:32;18.27;;;11.68;;
27539;SDS011;15906;52.046;4.724;2023-05-10T11:56:10;21.02;;;11.30;;
27539;SDS011;15906;52.046;4.724;2023-05-10T11:58:39;17.90;;;10.70;;
27539;SDS011;15906;52.046;4.724;2023-05-10T12:01:06;19.67;;;12.55;;
27539;SDS011;15906;52.046;4.724;2023-05-10T12:03:32;21.88;;;12.60;;
27539;SDS011;15906;52.046;4.724;2023-05-10T12:05:59;20.90;;;12.93;;
27539;SDS011;15906;52.046;4.724;2023-05-10T12:08:26;19.35;;;12.88;;
27539;SDS011;15906;52.046;4.724;2023-05-10T12:10:53;18.08;;;12.65;;
27539;SDS011;15906;52.046;4.724;2023-05-10T12:13:29;20.45;;;12.73;;
27539;SDS011;15906;52.046;4.724;2023-05-10T12:15:57;21.17;;;12.98;;
27539;SDS011;15906;52.046;4.724;2023-05-10T12:18:23;16.42;;;11.30;;
27539;SDS011;15906;52.046;4.724;2023-05-10T12:20:51;21.08;;;12.77;;
27539;SDS011;15906;52.046;4.724;2023-05-10T12:23:18;19.60;;;11.82;;
27539;SDS011;15906;52.046;4.724;2023-05-10T12:25:45;17.17;;;10.80;;
27539;SDS011;15906;52.046;4.724;2023-05-10T12:28:11;19.50;;;12.90;;
27539;SDS011;15906;52.046;4.724;2023-05-10T12:30:36;22.90;;;11.60;;
27539;SDS011;15906;52.046;4.724;2023-05-10T12:33:07;20.02;;;12.50;;
27539;SDS011;15906;52.046;4.724;2023-05-10T12:35:32;16.40;;;10.52;;
27539;SDS011;15906;52.046;4.724;2023-05-10T12:41:13;15.30;;;9.65;;
27539;SDS011;15906;52.046;4.724;2023-05-10T12:43:40;12.23;;;9.07;;
27539;SDS011;15906;52.046;4.724;2023-05-10T12:46:12;15.65;;;9.95;;
27539;SDS011;15906;52.046;4.724;2023-05-10T12:48:40;14.15;;;9.05;;
27539;SDS011;15906;52.046;4.724;2023-05-10T12:51:06;12.35;;;8.43;;
27539;SDS011;15906;52.046;4.724;2023-05-10T12:53:40;16.13;;;8.68;;
27539;SDS011;15906;52.046;4.724;2023-05-10T12:56:06;13.90;;;9.45;;
27539;SDS011;15906;52.046;4.724;2023-05-10T12:58:32;14.98;;;8.38;;
27539;SDS011;15906;52.046;4.724;2023-05-10T13:00:58;12.07;;;8.18;;
27539;SDS011;15906;52.046;4.724;2023-05-10T13:03:24;14.68;;;8.25;;
27539;SDS011;15906;52.046;4.724;2023-05-10T13:05:50;13.00;;;8.70;;
27539;SDS011;15906;52.046;4.724;2023-05-10T13:08:15;16.92;;;9.85;;
27539;SDS011;15906;52.046;4.724;2023-05-10T13:10:41;17.85;;;10.13;;
27539;SDS011;15906;52.046;4.724;2023-05-10T13:13:07;15.90;;;9.88;;
27539;SDS011;15906;52.046;4.724;2023-05-10T13:15:33;18.77;;;10.00;;
27539;SDS011;15906;52.046;4.724;2023-05-10T13:17:59;15.95;;;8.65;;
27539;SDS011;15906;52.046;4.724;2023-05-10T13:20:25;11.27;;;8.10;;
27539;SDS011;15906;52.046;4.724;2023-05-10T13:22:51;14.15;;;8.38;;
27539;SDS011;15906;52.046;4.724;2023-05-10T13:25:16;15.73;;;8.75;;
27539;SDS011;15906;52.046;4.724;2023-05-10T13:27:42;13.65;;;9.07;;
27539;SDS011;15906;52.046;4.724;2023-05-10T13:30:08;16.63;;;10.68;;
27539;SDS011;15906;52.046;4.724;2023-05-10T13:32:36;14.55;;;10.75;;
27539;SDS011;15906;52.046;4.724;2023-05-10T13:35:02;15.68;;;10.75;;
27539;SDS011;15906;52.046;4.724;2023-05-10T13:37:31;17.10;;;9.20;;
27539;SDS011;15906;52.046;4.724;2023-05-10T13:39:57;14.20;;;10.05;;
27539;SDS011;15906;52.046;4.724;2023-05-10T13:42:22;15.80;;;9.52;;
27539;SDS011;15906;52.046;4.724;2023-05-10T13:44:48;18.50;;;9.60;;
27539;SDS011;15906;52.046;4.724;2023-05-10T13:47:14;13.95;;;9.40;;
27539;SDS011;15906;52.046;4.724;2023-05-10T13:49:40;14.32;;;9.15;;
27539;SDS011;15906;52.046;4.724;2023-05-10T13:52:06;13.90;;;9.30;;
27539;SDS011;15906;52.046;4.724;2023-05-10T13:54:34;12.35;;;8.68;;
27539;SDS011;15906;52.046;4.724;2023-05-10T13:57:00;11.77;;;8.48;;
27539;SDS011;15906;52.046;4.724;2023-05-10T13:59:26;16.23;;;8.40;;
27539;SDS011;15906;52.046;4.724;2023-05-10T14:01:52;13.20;;;8.02;;
27539;SDS011;15906;52.046;4.724;2023-05-10T14:04:17;11.63;;;6.75;;
27539;SDS011;15906;52.046;4.724;2023-05-10T14:06:43;12.07;;;7.50;;
27539;SDS011;15906;52.046;4.724;2023-05-10T14:09:08;11.02;;;7.40;;
27539;SDS011;15906;52.046;4.724;2023-05-10T14:11:34;9.75;;;6.55;;
27539;SDS011;15906;52.046;4.724;2023-05-10T14:14:00;11.02;;;6.22;;
27539;SDS011;15906;52.046;4.724;2023-05-10T14:16:25;10.18;;;6.38;;
27539;SDS011;15906;52.046;4.724;2023-05-10T14:18:52;9.30;;;6.65;;
27539;SDS011;15906;52.046;4.724;2023-05-10T14:21:17;12.32;;;7.53;;
27539;SDS011;15906;52.046;4.724;2023-05-10T14:23:43;10.52;;;6.20;;
27539;SDS011;15906;52.046;4.724;2023-05-10T14:26:09;11.18;;;6.25;;
27539;SDS011;15906;52.046;4.724;2023-05-10T14:28:34;9.82;;;5.72;;
27539;SDS011;15906;52.046;4.724;2023-05-10T14:31:00;9.73;;;5.85;;
27539;SDS011;15906;52.046;4.724;2023-05-10T14:33:25;11.23;;;6.18;;
27539;SDS011;15906;52.046;4.724;2023-05-10T14:35:51;8.48;;;5.95;;
27539;SDS011;15906;52.046;4.724;2023-05-10T14:38:17;9.77;;;6.22;;
27539;SDS011;15906;52.046;4.724;2023-05-10T14:40:42;8.95;;;5.63;;
27539;SDS011;15906;52.046;4.724;2023-05-10T14:43:08;11.05;;;5.90;;
27539;SDS011;15906;52.046;4.724;2023-05-10T14:45:33;11.48;;;5.70;;
27539;SDS011;15906;52.046;4.724;2023-05-10T14:47:59;7.10;;;5.45;;
27539;SDS011;15906;52.046;4.724;2023-05-10T14:50:25;8.90;;;5.50;;
27539;SDS011;15906;52.046;4.724;2023-05-10T14:52:51;7.22;;;4.97;;
27539;SDS011;15906;52.046;4.724;2023-05-10T14:55:16;6.95;;;5.03;;
27539;SDS011;15906;52.046;4.724;2023-05-10T14:57:42;9.18;;;5.63;;
27539;SDS011;15906;52.046;4.724;2023-05-10T15:00:09;7.68;;;5.28;;
27539;SDS011;15906;52.046;4.724;2023-05-10T15:02:35;8.63;;;5.38;;
27539;SDS011;15906;52.046;4.724;2023-05-10T15:05:01;9.43;;;5.90;;
27539;SDS011;15906;52.046;4.724;2023-05-10T15:07:27;8.85;;;5.50;;
27539;SDS011;15906;52.046;4.724;2023-05-10T15:09:52;9.50;;;5.75;;
27539;SDS011;15906;52.046;4.724;2023-05-10T15:12:19;10.90;;;5.95;;
27539;SDS011;15906;52.046;4.724;2023-05-10T15:14:45;8.20;;;5.88;;
27539;SDS011;15906;52.046;4.724;2023-05-10T15:17:11;11.30;;;6.03;;
27539;SDS011;15906;52.046;4.724;2023-05-10T15:19:36;7.93;;;5.30;;
27539;SDS011;15906;52.046;4.724;2023-05-10T15:22:03;9.00;;;6.05;;